Terminal Aerodrome Forecast
Issued by NWS Charleston, WV

Current Version | Previous Version | Text Only | Print | Product List | Glossary Off
Versions: 1 2 3 4 5 6 7 8 9 10 11 12 13 14 15 16 17 18 19 20 21 22 23

000
FTUS41 KRLX 260540
TAFPKB
TAF
KPKB 260540Z 2606/2706 00000KT P6SM BKN050
     FM261200 VRB03KT P6SM VCTS BKN050CB
     FM262000 18007KT P6SM VCTS BKN050CB
     FM270200 20007KT P6SM SHRA VCTS BKN040CB
     FM270500 20006KT 5SM SHRA BR VCTS OVC025CB=

USA.gov is the U.S. government's official web portal to all federal, state and local government web resources and services.